createdAt,value
2019-01-02T00:00:35.684Z,1.93
2019-01-02T00:03:01.635Z,1.94
2019-01-02T00:05:27.889Z,1.80
2019-01-02T00:07:53.741Z,1.83
2019-01-02T00:10:19.984Z,1.91
2019-01-02T00:12:45.920Z,1.96
2019-01-02T00:15:12.050Z,1.92
2019-01-02T00:17:38.371Z,1.88
2019-01-02T00:20:11.396Z,1.98
2019-01-02T00:22:37.485Z,1.84
2019-01-02T00:25:04.835Z,1.88
2019-01-02T00:27:30.701Z,1.84
2019-01-02T00:29:56.517Z,1.79
2019-01-02T00:32:22.386Z,1.77
2019-01-02T00:34:48.221Z,1.78
2019-01-02T00:37:14.052Z,1.73
2019-01-02T00:39:39.877Z,1.70
2019-01-02T00:42:05.709Z,1.81
2019-01-02T00:44:32.035Z,1.81
2019-01-02T00:46:57.885Z,1.79
2019-01-02T00:49:23.709Z,1.87
2019-01-02T00:51:49.572Z,1.83
2019-01-02T00:54:15.834Z,1.66
2019-01-02T00:56:41.780Z,1.73
2019-01-02T00:59:07.998Z,1.37
2019-01-02T01:01:33.932Z,1.02
2019-01-02T01:03:59.987Z,1.09
2019-01-02T01:06:25.837Z,0.96
2019-01-02T01:08:51.980Z,0.89
2019-01-02T01:11:17.903Z,0.94
2019-01-02T01:13:43.814Z,0.93
2019-01-02T01:16:09.648Z,0.68
2019-01-02T01:18:38.125Z,0.76
2019-01-02T01:21:04.063Z,0.76
2019-01-02T01:23:29.921Z,0.73
2019-01-02T01:25:55.843Z,0.77
2019-01-02T01:28:22.078Z,0.80
2019-01-02T01:30:47.924Z,0.58
2019-01-02T01:33:14.264Z,0.60
2019-01-02T01:35:40.115Z,0.51
2019-01-02T01:38:05.968Z,0.57
2019-01-02T01:40:32.226Z,0.66
2019-01-02T01:42:58.084Z,0.65
2019-01-02T01:45:24.167Z,0.68
2019-01-02T01:47:50.092Z,0.69
2019-01-02T01:50:16.451Z,0.84
2019-01-02T01:52:42.283Z,0.85
2019-01-02T01:55:08.091Z,0.85
2019-01-02T01:57:34.350Z,0.89
2019-01-02T02:00:00.409Z,0.92
2019-01-02T02:02:26.680Z,0.92
2019-01-02T02:04:52.513Z,0.94
2019-01-02T02:07:18.666Z,0.99
2019-01-02T02:09:44.503Z,0.86
2019-01-02T02:12:10.436Z,0.91
2019-01-02T02:14:36.362Z,0.82
2019-01-02T02:17:02.381Z,0.73
2019-01-02T02:19:28.596Z,0.76
2019-01-02T02:21:54.426Z,0.61
2019-01-02T02:24:20.365Z,0.57
2019-01-02T02:26:46.194Z,0.52
2019-01-02T02:29:12.057Z,0.66
2019-01-02T02:31:38.280Z,0.54
2019-01-02T02:34:04.122Z,0.55
2019-01-02T02:36:30.355Z,0.53
2019-01-02T02:38:56.581Z,0.58
2019-01-02T02:41:22.795Z,0.46
2019-01-02T02:43:49.014Z,0.56
2019-01-02T02:46:14.958Z,0.54
2019-01-02T02:48:40.797Z,0.58
2019-01-02T02:51:07.053Z,0.73
2019-01-02T02:53:33.398Z,0.52
2019-01-02T02:55:59.550Z,0.50
2019-01-02T02:58:25.667Z,0.63
2019-01-02T03:00:51.691Z,0.62
2019-01-02T03:03:17.802Z,0.50
2019-01-02T03:05:43.638Z,0.50
2019-01-02T03:08:09.475Z,0.42
2019-01-02T03:10:35.695Z,0.41
2019-01-02T03:13:02.236Z,0.53
2019-01-02T03:15:28.530Z,0.61
2019-01-02T03:17:54.365Z,0.55
2019-01-02T03:20:20.184Z,0.54
2019-01-02T03:22:46.132Z,0.52
2019-01-02T03:25:12.851Z,0.56
2019-01-02T03:27:39.085Z,0.55
2019-01-02T03:30:08.413Z,0.49
2019-01-02T03:32:34.531Z,0.54
2019-01-02T03:35:00.796Z,0.51
2019-01-02T03:37:26.626Z,0.54
2019-01-02T03:39:52.460Z,0.53
2019-01-02T03:42:18.286Z,0.53
2019-01-02T03:44:44.317Z,0.47
2019-01-02T03:47:10.243Z,0.43
2019-01-02T03:49:36.180Z,0.40
2019-01-02T03:52:01.997Z,0.40
2019-01-02T03:54:27.823Z,0.32
2019-01-02T03:56:53.673Z,0.51
2019-01-02T03:59:19.502Z,0.47
2019-01-02T04:01:45.418Z,0.50
2019-01-02T04:04:11.324Z,0.42
2019-01-02T04:06:37.265Z,0.36
2019-01-02T04:09:05.105Z,0.27
2019-01-02T04:11:30.933Z,0.33
2019-01-02T04:13:56.855Z,0.43
2019-01-02T04:16:22.698Z,0.41
2019-01-02T04:18:48.519Z,0.46
2019-01-02T04:21:14.370Z,0.41
2019-01-02T04:23:40.192Z,0.25
2019-01-02T04:26:06.031Z,0.39
2019-01-02T04:28:31.850Z,0.37
2019-01-02T04:30:57.673Z,0.35
2019-01-02T04:33:23.493Z,0.40
2019-01-02T04:35:49.319Z,0.51
2019-01-02T04:38:15.235Z,0.61
2019-01-02T04:40:41.181Z,0.66
2019-01-02T04:43:07.090Z,0.65
2019-01-02T04:45:32.997Z,0.62
2019-01-02T04:47:58.834Z,0.37
2019-01-02T04:50:24.756Z,0.47
2019-01-02T04:52:50.592Z,0.54
2019-01-02T04:55:16.553Z,0.59
2019-01-02T04:57:42.491Z,0.47
2019-01-02T05:00:15.721Z,0.52
2019-01-02T05:02:41.544Z,0.50
2019-01-02T05:05:07.371Z,0.51
2019-01-02T05:07:33.323Z,0.39
2019-01-02T05:09:59.177Z,0.50
2019-01-02T05:12:25.125Z,0.52
2019-01-02T05:14:51.053Z,0.57
2019-01-02T05:17:16.966Z,0.56
2019-01-02T05:19:42.797Z,0.63
2019-01-02T05:22:08.622Z,0.49
2019-01-02T05:24:34.438Z,0.76
2019-01-02T05:27:00.265Z,0.83
2019-01-02T05:29:26.115Z,0.75
2019-01-02T05:31:51.934Z,0.77
2019-01-02T05:34:17.786Z,0.77
2019-01-02T05:36:43.695Z,0.78
2019-01-02T05:39:09.658Z,0.76
2019-01-02T05:41:35.503Z,0.74
2019-01-02T05:44:01.434Z,0.76
2019-01-02T05:46:27.258Z,0.75
2019-01-02T05:48:53.180Z,0.78
2019-01-02T05:51:19.004Z,0.74
2019-01-02T05:53:44.840Z,0.71
2019-01-02T05:56:10.662Z,0.76
2019-01-02T05:58:36.513Z,0.83
2019-01-02T06:01:02.523Z,0.76
2019-01-02T06:03:28.362Z,0.81
2019-01-02T06:05:54.186Z,0.80
2019-01-02T06:08:20.024Z,0.71
2019-01-02T06:10:45.831Z,0.72
2019-01-02T06:13:11.655Z,0.74
2019-01-02T06:15:37.610Z,0.73
2019-01-02T06:18:03.447Z,0.65
2019-01-02T06:20:29.300Z,0.72
2019-01-02T06:22:55.136Z,0.68
2019-01-02T06:25:20.992Z,0.76
2019-01-02T06:27:46.822Z,0.79
2019-01-02T06:30:12.742Z,0.80
2019-01-02T06:32:38.750Z,0.76
2019-01-02T06:35:05.984Z,0.76
2019-01-02T06:37:31.791Z,0.84
2019-01-02T06:39:57.613Z,0.82
2019-01-02T06:42:23.421Z,0.87
2019-01-02T06:44:49.262Z,0.94
2019-01-02T06:47:15.208Z,1.01
2019-01-02T06:49:41.057Z,0.95
2019-01-02T06:52:06.896Z,0.94
2019-01-02T06:54:32.720Z,1.00
2019-01-02T06:56:58.561Z,0.33
2019-01-02T06:59:24.402Z,0.95
2019-01-02T07:01:50.238Z,1.01
2019-01-02T07:04:16.050Z,0.90
2019-01-02T07:06:41.883Z,0.85
2019-01-02T07:09:07.733Z,0.87
2019-01-02T07:11:33.539Z,0.77
2019-01-02T07:13:59.367Z,0.76
2019-01-02T07:16:25.203Z,0.66
2019-01-02T07:18:51.258Z,0.72
2019-01-02T07:21:17.225Z,0.81
2019-01-02T07:23:43.189Z,0.75
2019-01-02T07:26:09.026Z,0.73
2019-01-02T07:28:34.868Z,0.64
2019-01-02T07:31:00.671Z,0.68
2019-01-02T07:33:39.658Z,0.67
2019-01-02T07:36:21.620Z,0.70
2019-01-02T07:39:20.482Z,0.76
2019-01-02T07:42:05.466Z,0.57
2019-01-02T07:44:35.114Z,0.63
2019-01-02T07:47:10.740Z,0.50
2019-01-02T07:49:43.231Z,0.63
2019-01-02T07:52:18.633Z,0.64
2019-01-02T07:55:08.154Z,0.61
2019-01-02T07:57:52.684Z,0.66
2019-01-02T08:00:39.110Z,0.53
2019-01-02T08:03:14.642Z,0.60
2019-01-02T08:06:05.208Z,0.53
2019-01-02T08:08:40.868Z,0.65
2019-01-02T08:11:22.019Z,0.56
2019-01-02T08:14:00.359Z,0.65
2019-01-02T08:16:42.158Z,0.65
2019-01-02T08:19:17.828Z,0.65
2019-01-02T08:22:07.658Z,0.59
2019-01-02T08:25:00.449Z,0.52
2019-01-02T08:27:39.450Z,0.55
2019-01-02T08:30:23.909Z,0.70
2019-01-02T08:33:25.746Z,0.80
2019-01-02T08:36:04.439Z,0.86
2019-01-02T08:38:55.082Z,0.65
2019-01-02T08:41:36.494Z,0.88
2019-01-02T08:44:21.413Z,0.96
2019-01-02T08:47:03.280Z,1.19
2019-01-02T08:49:35.931Z,1.27
2019-01-02T08:52:32.946Z,1.17
2019-01-02T08:55:08.501Z,1.28
2019-01-02T08:58:10.354Z,1.18
2019-01-02T09:00:56.818Z,1.13
2019-01-02T09:03:39.646Z,1.21
2019-01-02T09:06:30.454Z,1.17
2019-01-02T09:09:17.777Z,1.15
2019-01-02T09:11:59.520Z,1.25
2019-01-02T09:14:29.173Z,1.09
2019-01-02T09:17:07.677Z,1.10
2019-01-02T09:19:46.187Z,1.25
2019-01-02T09:22:37.246Z,1.28
2019-01-02T09:25:33.735Z,1.45
2019-01-02T09:28:20.188Z,1.56
2019-01-02T09:31:06.174Z,1.66
2019-01-02T09:33:52.166Z,1.83
2019-01-02T09:36:25.084Z,2.07
2019-01-02T09:39:00.804Z,2.06
2019-01-02T09:41:36.315Z,1.99
2019-01-02T09:44:15.226Z,1.97
2019-01-02T09:47:17.066Z,1.56
2019-01-02T09:49:55.319Z,1.29
2019-01-02T09:52:44.375Z,0.80
2019-01-02T09:55:29.474Z,0.53
2019-01-02T09:58:32.730Z,0.25
2019-01-02T10:01:05.473Z,0.28
2019-01-02T10:03:59.769Z,0.38
2019-01-02T10:06:35.377Z,0.24
2019-01-02T10:09:20.207Z,0.25
2019-01-02T10:11:58.899Z,0.25
2019-01-02T10:14:46.643Z,0.31
2019-01-02T10:17:19.121Z,0.34
2019-01-02T10:20:08.722Z,0.38
2019-01-02T10:23:13.281Z,0.03
2019-01-02T10:26:01.443Z,0.03
2019-01-02T10:28:46.141Z,0.11
2019-01-02T10:31:27.546Z,0.13
2019-01-02T10:34:06.491Z,0.17
2019-01-02T10:37:02.167Z,0.14
2019-01-02T10:39:57.918Z,0.28
2019-01-02T10:42:33.119Z,0.30
2019-01-02T10:45:08.439Z,0.42
2019-01-02T10:47:40.931Z,0.61
2019-01-02T10:50:19.430Z,0.59
2019-01-02T10:52:51.855Z,0.76
2019-01-02T10:55:27.506Z,0.72
2019-01-02T10:58:27.646Z,0.49
2019-01-02T11:01:03.365Z,0.49
2019-01-02T11:03:35.837Z,0.28
2019-01-02T11:06:14.701Z,0.23
2019-01-02T11:08:56.040Z,0.23
2019-01-02T11:11:34.974Z,0.50
2019-01-02T11:14:04.589Z,0.31
2019-01-02T11:16:34.214Z,0.47
2019-01-02T11:19:25.215Z,0.34
2019-01-02T11:21:57.602Z,0.52
2019-01-02T11:24:39.531Z,0.51
2019-01-02T11:27:30.928Z,0.51
2019-01-02T11:30:17.075Z,0.45
2019-01-02T11:33:03.461Z,0.42
2019-01-02T11:35:42.082Z,0.27
2019-01-02T11:38:26.878Z,0.23
2019-01-02T11:41:11.679Z,0.18
2019-01-02T11:44:02.577Z,0.04
2019-01-02T11:46:28.445Z,0.02
2019-01-02T11:48:54.279Z,0.02
2019-01-02T11:51:20.086Z,0.24
2019-01-02T11:53:45.912Z,0.22
2019-01-02T11:56:12.202Z,0.52
2019-01-02T11:58:38.020Z,0.76
2019-01-02T12:01:03.975Z,1.12
2019-01-02T12:03:29.805Z,1.56
2019-01-02T12:05:55.656Z,1.59
2019-01-02T12:08:21.712Z,1.12
2019-01-02T12:10:47.933Z,0.90
2019-01-02T12:13:13.906Z,0.56
2019-01-02T12:15:39.738Z,-0.75
2019-01-02T12:18:05.585Z,-1.10
2019-01-02T12:20:31.433Z,-0.92
2019-01-02T12:22:57.273Z,-0.80
2019-01-02T12:25:23.096Z,-1.11
2019-01-02T12:27:48.960Z,-1.15
2019-01-02T12:30:14.792Z,-1.16
2019-01-02T12:32:40.728Z,-1.30
2019-01-02T12:35:06.664Z,-1.25
2019-01-02T12:37:32.486Z,-1.25
2019-01-02T12:39:58.632Z,-1.11
2019-01-02T12:42:24.487Z,-1.12
2019-01-02T12:44:50.345Z,-0.95
2019-01-02T12:47:16.202Z,-0.88
2019-01-02T12:49:42.048Z,-0.64
2019-01-02T12:52:07.872Z,-0.63
2019-01-02T12:54:33.727Z,-0.47
2019-01-02T12:56:59.719Z,-0.28
2019-01-02T12:59:26.777Z,-0.24
2019-01-02T13:01:56.422Z,-0.33
2019-01-02T13:04:47.287Z,-0.79
2019-01-02T13:07:36.515Z,-0.86
2019-01-02T13:10:15.224Z,-1.25
2019-01-02T13:13:09.113Z,-1.34
2019-01-02T13:15:41.787Z,-1.30
2019-01-02T13:18:35.938Z,-1.24
2019-01-02T13:21:23.738Z,-1.37
2019-01-02T13:24:05.324Z,-1.50
2019-01-02T13:26:34.962Z,-1.48
2019-01-02T13:29:07.759Z,-1.41
2019-01-02T13:31:55.276Z,-1.28
2019-01-02T13:34:34.163Z,-1.26
2019-01-02T13:37:13.392Z,-0.65
2019-01-02T13:39:43.033Z,-0.14
2019-01-02T13:42:24.238Z,-0.35
2019-01-02T13:44:53.881Z,-0.13
2019-01-02T13:47:44.237Z,-0.08
2019-01-02T13:50:16.937Z,-0.30
2019-01-02T13:52:42.784Z,-0.38
2019-01-02T13:55:12.223Z,-0.68
2019-01-02T13:57:38.083Z,-0.73
2019-01-02T14:00:07.324Z,-0.62
2019-01-02T14:02:33.180Z,-0.67
2019-01-02T14:04:59.273Z,0.07
2019-01-02T14:07:25.118Z,-0.38
2019-01-02T14:09:50.968Z,-0.49
2019-01-02T14:12:16.810Z,-0.54
2019-01-02T14:14:42.635Z,-0.50
2019-01-02T14:17:08.788Z,-0.61
2019-01-02T14:19:35.284Z,-0.67
2019-01-02T14:22:01.235Z,-0.68
2019-01-02T14:24:27.230Z,-0.71
2019-01-02T14:26:53.030Z,-0.73
2019-01-02T14:29:18.885Z,-0.73
2019-01-02T14:31:44.721Z,-0.88
2019-01-02T14:34:10.583Z,-0.99
2019-01-02T14:36:36.430Z,-1.06
2019-01-02T14:39:04.882Z,-1.05
2019-01-02T14:41:30.732Z,-1.10
2019-01-02T14:43:56.588Z,-1.06
2019-01-02T14:46:22.428Z,-1.06
2019-01-02T14:48:48.309Z,-0.96
2019-01-02T14:51:14.137Z,-0.73
2019-01-02T14:53:40.003Z,-0.67
2019-01-02T14:56:05.819Z,-0.57
2019-01-02T14:58:31.670Z,-0.49
2019-01-02T15:00:57.513Z,-0.42
2019-01-02T15:03:23.485Z,-0.55
2019-01-02T15:05:49.307Z,-0.60
2019-01-02T15:08:15.139Z,-0.61
2019-01-02T15:10:40.970Z,-0.48
2019-01-02T15:13:06.836Z,-0.88
2019-01-02T15:15:32.777Z,-1.21
2019-01-02T15:17:58.997Z,-1.37
2019-01-02T15:20:24.854Z,-1.43
2019-01-02T15:22:50.713Z,-1.21
2019-01-02T15:25:16.566Z,-1.31
2019-01-02T15:27:42.380Z,-1.28
2019-01-02T15:30:09.422Z,-1.25
2019-01-02T15:32:35.360Z,-1.23
2019-01-02T15:35:01.416Z,-1.29
2019-01-02T15:37:27.341Z,-1.40
2019-01-02T15:39:53.250Z,-1.47
2019-01-02T15:42:19.086Z,-1.53
2019-01-02T15:44:44.906Z,-1.49
2019-01-02T15:47:10.778Z,-2.04
2019-01-02T15:49:36.649Z,-1.52
2019-01-02T15:52:02.571Z,-1.60
2019-01-02T15:54:28.421Z,-1.54
2019-01-02T15:56:54.277Z,-1.59
2019-01-02T15:59:20.111Z,-1.52
2019-01-02T16:01:45.983Z,-1.60
2019-01-02T16:04:11.804Z,-1.46
2019-01-02T16:06:37.653Z,-1.56
2019-01-02T16:09:05.272Z,-1.52
2019-01-02T16:11:31.123Z,-1.54
2019-01-02T16:13:56.979Z,-1.59
2019-01-02T16:16:22.804Z,-1.57
2019-01-02T16:18:48.646Z,-1.50
2019-01-02T16:21:14.580Z,-1.44
2019-01-02T16:23:40.419Z,-1.35
2019-01-02T16:26:06.381Z,-1.40
2019-01-02T16:28:32.213Z,-1.42
2019-01-02T16:30:58.030Z,-1.45
2019-01-02T16:33:23.891Z,-1.58
2019-01-02T16:35:49.913Z,-1.59
2019-01-02T16:38:15.866Z,-1.47
2019-01-02T16:40:41.919Z,-1.67
2019-01-02T16:43:07.752Z,-1.65
2019-01-02T16:45:33.702Z,-1.55
2019-01-02T16:47:59.542Z,-1.39
2019-01-02T16:50:25.394Z,-1.43
2019-01-02T16:52:51.218Z,-1.41
2019-01-02T16:55:17.061Z,-1.45
2019-01-02T16:57:42.905Z,-1.38
2019-01-02T17:00:10.745Z,-1.34
2019-01-02T17:02:36.752Z,-1.34
2019-01-02T17:05:03.051Z,-1.43
2019-01-02T17:07:28.878Z,-1.44
2019-01-02T17:09:54.703Z,-1.52
2019-01-02T17:12:20.551Z,-1.42
2019-01-02T17:14:46.363Z,-1.43
2019-01-02T17:17:12.218Z,-1.44
2019-01-02T17:19:38.164Z,-1.53
2019-01-02T17:22:04.076Z,-1.62
2019-01-02T17:24:29.940Z,-1.72
2019-01-02T17:26:55.758Z,-1.74
2019-01-02T17:29:21.609Z,-1.74
2019-01-02T17:31:47.437Z,-1.66
2019-01-02T17:34:13.265Z,-1.74
2019-01-02T17:36:39.094Z,-1.72
2019-01-02T17:39:05.531Z,-1.79
2019-01-02T17:41:31.362Z,-1.71
2019-01-02T17:43:57.345Z,-1.62
2019-01-02T17:46:23.248Z,-1.55
2019-01-02T17:48:49.072Z,-1.58
2019-01-02T17:51:15.272Z,-1.58
2019-01-02T17:53:41.111Z,-1.57
2019-01-02T17:56:07.045Z,-1.42
2019-01-02T17:58:32.897Z,-1.44
2019-01-02T18:00:59.052Z,-1.46
2019-01-02T18:03:24.857Z,-1.31
2019-01-02T18:05:50.676Z,-2.29
2019-01-02T18:08:16.528Z,-1.47
2019-01-02T18:10:42.400Z,-1.56
2019-01-02T18:13:08.341Z,-1.43
2019-01-02T18:15:34.179Z,-1.48
2019-01-02T18:18:00.030Z,-1.53
2019-01-02T18:20:25.851Z,-1.51
2019-01-02T18:22:51.709Z,-1.49
2019-01-02T18:25:17.541Z,-1.68
2019-01-02T18:27:43.386Z,-1.49
2019-01-02T18:30:10.250Z,-1.49
2019-01-02T18:32:36.074Z,-1.42
2019-01-02T18:35:01.996Z,-1.59
2019-01-02T18:37:27.825Z,-1.76
2019-01-02T18:39:53.679Z,-1.53
2019-01-02T18:42:19.522Z,-1.47
2019-01-02T18:44:45.358Z,-1.47
2019-01-02T18:47:11.170Z,-1.50
2019-01-02T18:49:37.001Z,-1.58
2019-01-02T18:52:02.846Z,-1.58
2019-01-02T18:54:28.770Z,-1.68
2019-01-02T18:56:54.610Z,-1.85
2019-01-02T18:59:20.424Z,-1.86
2019-01-02T19:01:46.322Z,-1.69
2019-01-02T19:04:12.164Z,-1.61
2019-01-02T19:06:38.092Z,-1.56
2019-01-02T19:09:05.071Z,-1.63
2019-01-02T19:11:30.928Z,-1.59
2019-01-02T19:13:56.798Z,-1.73
2019-01-02T19:16:22.635Z,-1.79
2019-01-02T19:18:48.572Z,-1.74
2019-01-02T19:21:14.406Z,-1.64
2019-01-02T19:23:40.272Z,-1.61
2019-01-02T19:26:06.103Z,-1.61
2019-01-02T19:28:32.066Z,-1.49
2019-01-02T19:30:58.019Z,-1.60
2019-01-02T19:33:23.859Z,-1.55
2019-01-02T19:35:49.703Z,-1.60
2019-01-02T19:38:15.541Z,-1.44
2019-01-02T19:40:41.377Z,-1.57
2019-01-02T19:43:07.201Z,-1.61
2019-01-02T19:45:33.042Z,-1.61
2019-01-02T19:47:58.902Z,-1.55
2019-01-02T19:50:24.760Z,-1.56
2019-01-02T19:52:50.960Z,-1.52
2019-01-02T19:55:16.840Z,-1.51
2019-01-02T19:57:42.688Z,-1.51
2019-01-02T20:00:09.642Z,-1.48
2019-01-02T20:02:35.503Z,-1.25
2019-01-02T20:05:01.344Z,-1.39
2019-01-02T20:07:27.215Z,-1.55
2019-01-02T20:09:53.137Z,-1.70
2019-01-02T20:12:18.985Z,-1.58
2019-01-02T20:14:44.805Z,-1.63
2019-01-02T20:17:10.668Z,-1.40
2019-01-02T20:19:36.524Z,-1.58
2019-01-02T20:22:02.369Z,-1.60
2019-01-02T20:24:28.206Z,-1.61
2019-01-02T20:26:55.432Z,-1.64
2019-01-02T20:29:21.683Z,-1.75
2019-01-02T20:31:47.583Z,-1.58
2019-01-02T20:34:13.416Z,-1.69
2019-01-02T20:36:40.777Z,-1.60
2019-01-02T20:39:06.959Z,-1.61
2019-01-02T20:41:32.795Z,-1.65
2019-01-02T20:43:58.606Z,-1.48
2019-01-02T20:46:24.563Z,-1.64
2019-01-02T20:48:50.417Z,-1.58
2019-01-02T20:51:16.285Z,-1.64
2019-01-02T20:53:42.143Z,-1.58
2019-01-02T20:56:07.972Z,-1.50
2019-01-02T20:58:33.868Z,-1.50
2019-01-02T21:00:59.799Z,-1.65
2019-01-02T21:03:25.646Z,-1.68
2019-01-02T21:05:51.477Z,-1.71
2019-01-02T21:08:17.335Z,-1.63
2019-01-02T21:10:43.166Z,-1.58
2019-01-02T21:13:09.001Z,-1.51
2019-01-02T21:15:34.843Z,-1.53
2019-01-02T21:18:00.712Z,-1.48
2019-01-02T21:20:26.692Z,-1.39
2019-01-02T21:22:52.657Z,-1.45
2019-01-02T21:25:18.516Z,-1.32
2019-01-02T21:27:44.498Z,-1.47
2019-01-02T21:30:10.570Z,-1.40
2019-01-02T21:32:36.444Z,-1.29
2019-01-02T21:35:02.792Z,-1.23
2019-01-02T21:37:28.632Z,-1.24
2019-01-02T21:39:54.502Z,-1.28
2019-01-02T21:42:20.333Z,-1.30
2019-01-02T21:44:46.229Z,-1.32
2019-01-02T21:47:12.133Z,-1.30
2019-01-02T21:49:38.006Z,-1.29
2019-01-02T21:52:03.840Z,-1.36
2019-01-02T21:54:29.700Z,-1.36
2019-01-02T21:56:55.538Z,-1.33
2019-01-02T21:59:21.514Z,-1.38
2019-01-02T22:01:47.342Z,-1.30
2019-01-02T22:04:13.189Z,-1.49
2019-01-02T22:06:39.038Z,-1.37
2019-01-02T22:09:04.993Z,-1.43
2019-01-02T22:11:30.853Z,-1.49
2019-01-02T22:13:56.695Z,-1.66
2019-01-02T22:16:22.520Z,-1.65
2019-01-02T22:18:48.371Z,-1.62
2019-01-02T22:21:14.220Z,-1.64
2019-01-02T22:23:40.160Z,-1.59
2019-01-02T22:26:05.992Z,-1.58
2019-01-02T22:28:31.838Z,-1.64
2019-01-02T22:30:57.689Z,-1.59
2019-01-02T22:33:23.544Z,-1.67
2019-01-02T22:35:49.396Z,-1.70
2019-01-02T22:38:15.245Z,-1.76
2019-01-02T22:40:41.082Z,-1.58
2019-01-02T22:43:06.935Z,-1.69
2019-01-02T22:45:32.751Z,-1.71
2019-01-02T22:47:58.596Z,-1.74
2019-01-02T22:50:24.421Z,-1.76
2019-01-02T22:52:50.255Z,-1.72
2019-01-02T22:55:16.090Z,-1.68
2019-01-02T22:57:41.948Z,-1.70
2019-01-02T23:00:10.791Z,-1.63
2019-01-02T23:02:38.533Z,-1.83
2019-01-02T23:05:06.378Z,-1.77
2019-01-02T23:07:34.113Z,-1.80
2019-01-02T23:10:04.874Z,-1.71
2019-01-02T23:12:44.513Z,-1.85
2019-01-02T23:15:15.433Z,-1.67
2019-01-02T23:17:49.121Z,-1.70
2019-01-02T23:20:16.915Z,-1.77
2019-01-02T23:22:44.647Z,-1.72
2019-01-02T23:25:12.412Z,-1.72
2019-01-02T23:27:46.431Z,-1.60
2019-01-02T23:30:16.935Z,-1.56
2019-01-02T23:32:47.445Z,-1.66
2019-01-02T23:35:31.969Z,-1.61
2019-01-02T23:38:17.843Z,-1.56
2019-01-02T23:40:45.565Z,-1.57
2019-01-02T23:43:13.288Z,-1.52
2019-01-02T23:45:59.565Z,-1.53
2019-01-02T23:48:36.340Z,-1.53
2019-01-02T23:51:10.281Z,-1.51
2019-01-02T23:53:50.389Z,-1.67
2019-01-02T23:56:33.273Z,-1.59
2019-01-02T23:59:17.514Z,-1.52
